sensor_id;sensor_type;location;lat;lon;timestamp;P1;durP1;ratioP1;P2;durP2;ratioP2
72891;SDS011;61032;50.782;6.818;2023-03-01T00:00:48;6.97;;;4.68;;
72891;SDS011;61032;50.782;6.818;2023-03-01T00:01:48;7.30;;;5.05;;
72891;SDS011;61032;50.782;6.818;2023-03-01T00:02:48;7.93;;;4.75;;
72891;SDS011;61032;50.782;6.818;2023-03-01T00:03:49;8.35;;;4.72;;
72891;SDS011;61032;50.782;6.818;2023-03-01T00:04:50;7.05;;;4.70;;
72891;SDS011;61032;50.782;6.818;2023-03-01T00:05:50;7.47;;;4.85;;
72891;SDS011;61032;50.782;6.818;2023-03-01T00:06:50;9.05;;;4.82;;
72891;SDS011;61032;50.782;6.818;2023-03-01T00:07:53;9.25;;;4.80;;
72891;SDS011;61032;50.782;6.818;2023-03-01T00:08:53;7.45;;;3.95;;
72891;SDS011;61032;50.782;6.818;2023-03-01T00:09:54;6.65;;;4.45;;
72891;SDS011;61032;50.782;6.818;2023-03-01T00:12:10;6.80;;;4.57;;
72891;SDS011;61032;50.782;6.818;2023-03-01T00:13:11;7.38;;;4.80;;
72891;SDS011;61032;50.782;6.818;2023-03-01T00:14:11;7.25;;;4.75;;
72891;SDS011;61032;50.782;6.818;2023-03-01T00:15:12;8.05;;;4.50;;
72891;SDS011;61032;50.782;6.818;2023-03-01T00:16:17;7.70;;;5.10;;
72891;SDS011;61032;50.782;6.818;2023-03-01T00:17:19;6.95;;;4.32;;
72891;SDS011;61032;50.782;6.818;2023-03-01T00:18:20;7.63;;;4.97;;
72891;SDS011;61032;50.782;6.818;2023-03-01T00:19:20;7.05;;;4.68;;
72891;SDS011;61032;50.782;6.818;2023-03-01T00:20:21;7.75;;;4.80;;
72891;SDS011;61032;50.782;6.818;2023-03-01T00:21:22;8.57;;;4.82;;
72891;SDS011;61032;50.782;6.818;2023-03-01T00:22:24;8.13;;;4.32;;
72891;SDS011;61032;50.782;6.818;2023-03-01T00:23:28;8.45;;;5.05;;
72891;SDS011;61032;50.782;6.818;2023-03-01T00:24:28;7.00;;;3.97;;
72891;SDS011;61032;50.782;6.818;2023-03-01T00:25:29;6.85;;;5.20;;
72891;SDS011;61032;50.782;6.818;2023-03-01T00:26:29;6.70;;;4.75;;
72891;SDS011;61032;50.782;6.818;2023-03-01T00:27:29;6.97;;;4.78;;
72891;SDS011;61032;50.782;6.818;2023-03-01T00:28:30;8.38;;;4.80;;
72891;SDS011;61032;50.782;6.818;2023-03-01T00:29:31;6.72;;;4.55;;
72891;SDS011;61032;50.782;6.818;2023-03-01T00:30:31;7.72;;;5.13;;
72891;SDS011;61032;50.782;6.818;2023-03-01T00:31:33;7.78;;;5.03;;
72891;SDS011;61032;50.782;6.818;2023-03-01T00:32:33;6.80;;;4.88;;
72891;SDS011;61032;50.782;6.818;2023-03-01T00:33:34;6.95;;;5.10;;
72891;SDS011;61032;50.782;6.818;2023-03-01T00:34:34;7.22;;;4.38;;
72891;SDS011;61032;50.782;6.818;2023-03-01T00:35:35;9.00;;;4.65;;
72891;SDS011;61032;50.782;6.818;2023-03-01T00:36:36;9.73;;;4.88;;
72891;SDS011;61032;50.782;6.818;2023-03-01T00:37:37;6.85;;;4.43;;
72891;SDS011;61032;50.782;6.818;2023-03-01T00:38:37;9.75;;;4.53;;
72891;SDS011;61032;50.782;6.818;2023-03-01T00:39:39;7.10;;;4.72;;
72891;SDS011;61032;50.782;6.818;2023-03-01T00:40:39;8.70;;;4.97;;
72891;SDS011;61032;50.782;6.818;2023-03-01T00:41:40;6.50;;;4.53;;
72891;SDS011;61032;50.782;6.818;2023-03-01T00:42:41;9.02;;;4.65;;
72891;SDS011;61032;50.782;6.818;2023-03-01T00:43:41;7.72;;;4.53;;
72891;SDS011;61032;50.782;6.818;2023-03-01T00:44:42;7.45;;;4.82;;
72891;SDS011;61032;50.782;6.818;2023-03-01T00:45:42;7.55;;;4.70;;
72891;SDS011;61032;50.782;6.818;2023-03-01T00:46:43;7.45;;;4.88;;
72891;SDS011;61032;50.782;6.818;2023-03-01T00:47:43;9.82;;;4.88;;
72891;SDS011;61032;50.782;6.818;2023-03-01T00:48:44;8.05;;;4.60;;
72891;SDS011;61032;50.782;6.818;2023-03-01T00:49:45;10.40;;;5.10;;
72891;SDS011;61032;50.782;6.818;2023-03-01T00:50:45;8.60;;;5.10;;
72891;SDS011;61032;50.782;6.818;2023-03-01T00:51:45;8.57;;;5.20;;
72891;SDS011;61032;50.782;6.818;2023-03-01T00:52:46;7.53;;;5.22;;
72891;SDS011;61032;50.782;6.818;2023-03-01T00:53:47;9.13;;;5.20;;
72891;SDS011;61032;50.782;6.818;2023-03-01T00:54:51;7.78;;;4.70;;
72891;SDS011;61032;50.782;6.818;2023-03-01T00:55:52;10.25;;;5.93;;
72891;SDS011;61032;50.782;6.818;2023-03-01T00:56:53;9.30;;;5.60;;
72891;SDS011;61032;50.782;6.818;2023-03-01T00:57:53;9.02;;;5.30;;
72891;SDS011;61032;50.782;6.818;2023-03-01T00:58:53;10.65;;;5.18;;
72891;SDS011;61032;50.782;6.818;2023-03-01T00:59:53;8.38;;;5.25;;
72891;SDS011;61032;50.782;6.818;2023-03-01T01:00:54;9.23;;;5.15;;
72891;SDS011;61032;50.782;6.818;2023-03-01T01:01:54;9.13;;;5.28;;
72891;SDS011;61032;50.782;6.818;2023-03-01T01:02:54;8.70;;;5.22;;
72891;SDS011;61032;50.782;6.818;2023-03-01T01:03:56;8.45;;;5.40;;
72891;SDS011;61032;50.782;6.818;2023-03-01T01:04:58;7.32;;;5.03;;
72891;SDS011;61032;50.782;6.818;2023-03-01T01:05:58;9.57;;;5.90;;
72891;SDS011;61032;50.782;6.818;2023-03-01T01:06:59;9.82;;;5.70;;
72891;SDS011;61032;50.782;6.818;2023-03-01T01:07:59;10.40;;;5.80;;
72891;SDS011;61032;50.782;6.818;2023-03-01T01:08:59;9.45;;;5.38;;
72891;SDS011;61032;50.782;6.818;2023-03-01T01:10:00;7.47;;;5.25;;
72891;SDS011;61032;50.782;6.818;2023-03-01T01:11:01;11.70;;;5.57;;
72891;SDS011;61032;50.782;6.818;2023-03-01T01:12:01;10.55;;;5.32;;
72891;SDS011;61032;50.782;6.818;2023-03-01T01:13:01;10.52;;;5.63;;
72891;SDS011;61032;50.782;6.818;2023-03-01T01:14:02;8.45;;;5.45;;
72891;SDS011;61032;50.782;6.818;2023-03-01T01:15:02;11.02;;;6.18;;
72891;SDS011;61032;50.782;6.818;2023-03-01T01:16:03;8.60;;;5.32;;
72891;SDS011;61032;50.782;6.818;2023-03-01T01:17:04;9.88;;;4.85;;
72891;SDS011;61032;50.782;6.818;2023-03-01T01:18:04;8.57;;;5.35;;
72891;SDS011;61032;50.782;6.818;2023-03-01T01:19:05;8.30;;;5.38;;
72891;SDS011;61032;50.782;6.818;2023-03-01T01:20:05;9.38;;;5.53;;
72891;SDS011;61032;50.782;6.818;2023-03-01T01:21:07;10.25;;;5.53;;
72891;SDS011;61032;50.782;6.818;2023-03-01T01:22:09;9.98;;;5.85;;
72891;SDS011;61032;50.782;6.818;2023-03-01T01:23:10;7.65;;;5.35;;
72891;SDS011;61032;50.782;6.818;2023-03-01T01:24:10;9.25;;;5.40;;
72891;SDS011;61032;50.782;6.818;2023-03-01T01:25:11;10.07;;;5.20;;
72891;SDS011;61032;50.782;6.818;2023-03-01T01:26:19;11.40;;;6.32;;
72891;SDS011;61032;50.782;6.818;2023-03-01T01:27:29;10.13;;;5.45;;
72891;SDS011;61032;50.782;6.818;2023-03-01T01:28:30;9.30;;;5.43;;
72891;SDS011;61032;50.782;6.818;2023-03-01T01:29:30;6.18;;;4.32;;
72891;SDS011;61032;50.782;6.818;2023-03-01T01:30:30;10.07;;;6.28;;
72891;SDS011;61032;50.782;6.818;2023-03-01T01:31:31;7.93;;;5.63;;
72891;SDS011;61032;50.782;6.818;2023-03-01T01:32:32;9.45;;;5.38;;
72891;SDS011;61032;50.782;6.818;2023-03-01T01:33:33;8.23;;;5.18;;
72891;SDS011;61032;50.782;6.818;2023-03-01T01:34:33;10.65;;;5.28;;
72891;SDS011;61032;50.782;6.818;2023-03-01T01:35:34;7.85;;;5.18;;
72891;SDS011;61032;50.782;6.818;2023-03-01T01:36:34;10.85;;;5.68;;
72891;SDS011;61032;50.782;6.818;2023-03-01T01:37:35;9.75;;;5.63;;
72891;SDS011;61032;50.782;6.818;2023-03-01T01:38:35;8.73;;;5.30;;
72891;SDS011;61032;50.782;6.818;2023-03-01T01:39:37;10.93;;;5.53;;
72891;SDS011;61032;50.782;6.818;2023-03-01T01:40:44;9.00;;;5.55;;
72891;SDS011;61032;50.782;6.818;2023-03-01T01:41:44;9.27;;;5.63;;
72891;SDS011;61032;50.782;6.818;2023-03-01T01:42:45;10.43;;;5.47;;
72891;SDS011;61032;50.782;6.818;2023-03-01T01:43:46;11.38;;;5.13;;
72891;SDS011;61032;50.782;6.818;2023-03-01T01:45:15;10.15;;;5.57;;
72891;SDS011;61032;50.782;6.818;2023-03-01T01:46:28;8.30;;;5.30;;
72891;SDS011;61032;50.782;6.818;2023-03-01T01:47:31;11.80;;;5.90;;
72891;SDS011;61032;50.782;6.818;2023-03-01T01:48:39;11.13;;;6.00;;
72891;SDS011;61032;50.782;6.818;2023-03-01T01:50:43;10.30;;;5.93;;
72891;SDS011;61032;50.782;6.818;2023-03-01T01:51:45;9.15;;;6.18;;
72891;SDS011;61032;50.782;6.818;2023-03-01T01:52:48;10.05;;;5.97;;
72891;SDS011;61032;50.782;6.818;2023-03-01T01:53:53;9.60;;;5.63;;
72891;SDS011;61032;50.782;6.818;2023-03-01T01:57:36;8.70;;;5.15;;
72891;SDS011;61032;50.782;6.818;2023-03-01T01:58:38;11.07;;;5.32;;
72891;SDS011;61032;50.782;6.818;2023-03-01T01:59:42;11.27;;;5.32;;
72891;SDS011;61032;50.782;6.818;2023-03-01T02:00:45;8.63;;;5.15;;
72891;SDS011;61032;50.782;6.818;2023-03-01T02:01:47;9.18;;;5.50;;
72891;SDS011;61032;50.782;6.818;2023-03-01T02:02:48;8.27;;;5.25;;
72891;SDS011;61032;50.782;6.818;2023-03-01T02:03:54;9.02;;;5.80;;
72891;SDS011;61032;50.782;6.818;2023-03-01T02:04:58;8.23;;;5.30;;
72891;SDS011;61032;50.782;6.818;2023-03-01T02:06:11;8.07;;;5.35;;
72891;SDS011;61032;50.782;6.818;2023-03-01T02:07:18;9.80;;;5.05;;
72891;SDS011;61032;50.782;6.818;2023-03-01T02:08:22;7.78;;;5.47;;
72891;SDS011;61032;50.782;6.818;2023-03-01T02:09:25;7.72;;;5.40;;
72891;SDS011;61032;50.782;6.818;2023-03-01T02:10:26;11.38;;;5.63;;
72891;SDS011;61032;50.782;6.818;2023-03-01T02:12:32;11.20;;;5.05;;
72891;SDS011;61032;50.782;6.818;2023-03-01T02:13:34;7.38;;;4.95;;
72891;SDS011;61032;50.782;6.818;2023-03-01T02:14:35;10.77;;;5.40;;
72891;SDS011;61032;50.782;6.818;2023-03-01T02:15:35;11.23;;;6.20;;
72891;SDS011;61032;50.782;6.818;2023-03-01T02:16:37;9.55;;;5.95;;
72891;SDS011;61032;50.782;6.818;2023-03-01T02:17:38;8.55;;;5.88;;
72891;SDS011;61032;50.782;6.818;2023-03-01T02:18:39;7.85;;;5.00;;
72891;SDS011;61032;50.782;6.818;2023-03-01T02:19:48;9.73;;;5.85;;
72891;SDS011;61032;50.782;6.818;2023-03-01T02:21:12;10.57;;;5.15;;
72891;SDS011;61032;50.782;6.818;2023-03-01T02:23:38;8.98;;;4.75;;
72891;SDS011;61032;50.782;6.818;2023-03-01T02:24:49;9.85;;;6.47;;
72891;SDS011;61032;50.782;6.818;2023-03-01T02:26:07;10.48;;;5.93;;
72891;SDS011;61032;50.782;6.818;2023-03-01T02:27:15;8.07;;;4.70;;
72891;SDS011;61032;50.782;6.818;2023-03-01T02:28:20;7.30;;;4.63;;
72891;SDS011;61032;50.782;6.818;2023-03-01T02:29:34;9.70;;;6.18;;
72891;SDS011;61032;50.782;6.818;2023-03-01T02:30:34;11.10;;;5.00;;
72891;SDS011;61032;50.782;6.818;2023-03-01T02:31:35;8.07;;;5.50;;
72891;SDS011;61032;50.782;6.818;2023-03-01T02:32:42;8.05;;;5.85;;
72891;SDS011;61032;50.782;6.818;2023-03-01T02:33:42;9.93;;;5.50;;
72891;SDS011;61032;50.782;6.818;2023-03-01T02:34:44;8.88;;;5.50;;
72891;SDS011;61032;50.782;6.818;2023-03-01T02:35:44;10.05;;;5.05;;
72891;SDS011;61032;50.782;6.818;2023-03-01T02:36:53;10.13;;;5.30;;
72891;SDS011;61032;50.782;6.818;2023-03-01T02:37:56;10.60;;;6.55;;
72891;SDS011;61032;50.782;6.818;2023-03-01T02:39:02;11.07;;;6.47;;
72891;SDS011;61032;50.782;6.818;2023-03-01T02:40:06;10.30;;;5.75;;
72891;SDS011;61032;50.782;6.818;2023-03-01T02:41:12;10.05;;;5.78;;
72891;SDS011;61032;50.782;6.818;2023-03-01T02:42:15;8.75;;;5.53;;
72891;SDS011;61032;50.782;6.818;2023-03-01T02:43:20;10.32;;;6.00;;
72891;SDS011;61032;50.782;6.818;2023-03-01T02:44:25;8.73;;;5.35;;
72891;SDS011;61032;50.782;6.818;2023-03-01T02:45:26;10.23;;;5.55;;
72891;SDS011;61032;50.782;6.818;2023-03-01T02:46:27;8.82;;;5.68;;
72891;SDS011;61032;50.782;6.818;2023-03-01T02:47:27;9.02;;;5.85;;
72891;SDS011;61032;50.782;6.818;2023-03-01T02:48:27;10.98;;;5.65;;
72891;SDS011;61032;50.782;6.818;2023-03-01T02:49:29;11.15;;;6.13;;
72891;SDS011;61032;50.782;6.818;2023-03-01T02:50:46;8.90;;;5.55;;
72891;SDS011;61032;50.782;6.818;2023-03-01T02:53:13;9.82;;;5.60;;
72891;SDS011;61032;50.782;6.818;2023-03-01T02:54:34;9.05;;;5.72;;
72891;SDS011;61032;50.782;6.818;2023-03-01T02:55:42;8.75;;;5.55;;
72891;SDS011;61032;50.782;6.818;2023-03-01T02:56:43;8.45;;;5.55;;
72891;SDS011;61032;50.782;6.818;2023-03-01T02:57:48;6.38;;;4.70;;
72891;SDS011;61032;50.782;6.818;2023-03-01T02:58:51;6.88;;;4.78;;
72891;SDS011;61032;50.782;6.818;2023-03-01T02:59:53;9.40;;;5.05;;
72891;SDS011;61032;50.782;6.818;2023-03-01T03:00:54;6.90;;;5.15;;
72891;SDS011;61032;50.782;6.818;2023-03-01T03:01:56;7.30;;;5.05;;
72891;SDS011;61032;50.782;6.818;2023-03-01T03:02:56;7.68;;;5.25;;
72891;SDS011;61032;50.782;6.818;2023-03-01T03:03:57;8.05;;;5.20;;
72891;SDS011;61032;50.782;6.818;2023-03-01T03:04:57;8.05;;;5.18;;
72891;SDS011;61032;50.782;6.818;2023-03-01T03:05:57;9.27;;;5.68;;
72891;SDS011;61032;50.782;6.818;2023-03-01T03:06:58;9.60;;;5.05;;
72891;SDS011;61032;50.782;6.818;2023-03-01T03:07:58;8.18;;;6.07;;
72891;SDS011;61032;50.782;6.818;2023-03-01T03:09:00;7.82;;;5.80;;
72891;SDS011;61032;50.782;6.818;2023-03-01T03:10:01;9.18;;;5.45;;
72891;SDS011;61032;50.782;6.818;2023-03-01T03:11:03;8.63;;;5.50;;
72891;SDS011;61032;50.782;6.818;2023-03-01T03:12:04;10.38;;;5.97;;
72891;SDS011;61032;50.782;6.818;2023-03-01T03:13:08;10.25;;;5.82;;
72891;SDS011;61032;50.782;6.818;2023-03-01T03:14:11;9.23;;;6.10;;
72891;SDS011;61032;50.782;6.818;2023-03-01T03:15:13;9.48;;;6.53;;
72891;SDS011;61032;50.782;6.818;2023-03-01T03:16:14;10.45;;;6.53;;
72891;SDS011;61032;50.782;6.818;2023-03-01T03:17:14;12.55;;;6.80;;
72891;SDS011;61032;50.782;6.818;2023-03-01T03:18:15;13.57;;;7.10;;
72891;SDS011;61032;50.782;6.818;2023-03-01T03:19:17;12.48;;;7.00;;
72891;SDS011;61032;50.782;6.818;2023-03-01T03:20:20;12.70;;;7.05;;
72891;SDS011;61032;50.782;6.818;2023-03-01T03:21:23;14.73;;;7.43;;
72891;SDS011;61032;50.782;6.818;2023-03-01T03:22:23;12.95;;;7.13;;
72891;SDS011;61032;50.782;6.818;2023-03-01T03:23:24;11.25;;;6.63;;
72891;SDS011;61032;50.782;6.818;2023-03-01T03:24:25;11.77;;;6.78;;
72891;SDS011;61032;50.782;6.818;2023-03-01T03:25:25;9.98;;;6.50;;
72891;SDS011;61032;50.782;6.818;2023-03-01T03:26:27;11.23;;;6.95;;
72891;SDS011;61032;50.782;6.818;2023-03-01T03:27:28;10.13;;;6.30;;
72891;SDS011;61032;50.782;6.818;2023-03-01T03:28:28;10.40;;;6.38;;
72891;SDS011;61032;50.782;6.818;2023-03-01T03:29:28;11.60;;;6.70;;
72891;SDS011;61032;50.782;6.818;2023-03-01T03:30:30;12.02;;;6.53;;
72891;SDS011;61032;50.782;6.818;2023-03-01T03:31:31;9.95;;;6.78;;
72891;SDS011;61032;50.782;6.818;2023-03-01T03:32:31;9.15;;;6.55;;
72891;SDS011;61032;50.782;6.818;2023-03-01T03:33:32;12.55;;;7.13;;
72891;SDS011;61032;50.782;6.818;2023-03-01T03:34:32;11.43;;;6.72;;
72891;SDS011;61032;50.782;6.818;2023-03-01T03:35:34;14.30;;;7.30;;
72891;SDS011;61032;50.782;6.818;2023-03-01T03:36:38;11.88;;;7.57;;
72891;SDS011;61032;50.782;6.818;2023-03-01T03:37:39;10.57;;;6.72;;
72891;SDS011;61032;50.782;6.818;2023-03-01T03:38:58;10.10;;;6.30;;
72891;SDS011;61032;50.782;6.818;2023-03-01T03:40:00;10.15;;;6.65;;
72891;SDS011;61032;50.782;6.818;2023-03-01T03:41:02;12.57;;;7.20;;
72891;SDS011;61032;50.782;6.818;2023-03-01T03:42:07;10.52;;;6.70;;
72891;SDS011;61032;50.782;6.818;2023-03-01T03:43:09;10.00;;;7.10;;
72891;SDS011;61032;50.782;6.818;2023-03-01T03:44:14;11.45;;;6.85;;
72891;SDS011;61032;50.782;6.818;2023-03-01T03:45:15;11.82;;;7.20;;
72891;SDS011;61032;50.782;6.818;2023-03-01T03:46:16;11.10;;;6.25;;
72891;SDS011;61032;50.782;6.818;2023-03-01T03:47:17;11.20;;;7.47;;
72891;SDS011;61032;50.782;6.818;2023-03-01T03:48:17;10.38;;;7.22;;
72891;SDS011;61032;50.782;6.818;2023-03-01T03:49:18;13.77;;;7.07;;
72891;SDS011;61032;50.782;6.818;2023-03-01T03:50:18;10.77;;;7.43;;
72891;SDS011;61032;50.782;6.818;2023-03-01T03:51:19;10.90;;;6.60;;
72891;SDS011;61032;50.782;6.818;2023-03-01T03:52:19;11.38;;;7.57;;
72891;SDS011;61032;50.782;6.818;2023-03-01T03:53:20;13.60;;;6.15;;
72891;SDS011;61032;50.782;6.818;2023-03-01T03:54:21;10.40;;;6.55;;
72891;SDS011;61032;50.782;6.818;2023-03-01T03:55:22;13.35;;;6.93;;
72891;SDS011;61032;50.782;6.818;2023-03-01T03:56:22;10.30;;;6.05;;
72891;SDS011;61032;50.782;6.818;2023-03-01T03:57:25;12.25;;;7.50;;
72891;SDS011;61032;50.782;6.818;2023-03-01T03:58:26;10.02;;;6.85;;
72891;SDS011;61032;50.782;6.818;2023-03-01T03:59:26;10.20;;;7.18;;
72891;SDS011;61032;50.782;6.818;2023-03-01T04:00:27;11.23;;;7.70;;
72891;SDS011;61032;50.782;6.818;2023-03-01T04:01:28;12.68;;;7.53;;
72891;SDS011;61032;50.782;6.818;2023-03-01T04:02:28;10.15;;;7.20;;
72891;SDS011;61032;50.782;6.818;2023-03-01T04:03:29;11.27;;;7.43;;
72891;SDS011;61032;50.782;6.818;2023-03-01T04:04:31;11.48;;;7.50;;
72891;SDS011;61032;50.782;6.818;2023-03-01T04:05:32;11.18;;;6.78;;
72891;SDS011;61032;50.782;6.818;2023-03-01T04:06:33;11.80;;;6.93;;
72891;SDS011;61032;50.782;6.818;2023-03-01T04:07:33;13.57;;;6.80;;
72891;SDS011;61032;50.782;6.818;2023-03-01T04:08:37;11.98;;;7.50;;
72891;SDS011;61032;50.782;6.818;2023-03-01T04:09:38;12.38;;;6.90;;
72891;SDS011;61032;50.782;6.818;2023-03-01T04:10:39;10.82;;;6.30;;
72891;SDS011;61032;50.782;6.818;2023-03-01T04:11:41;10.80;;;7.15;;
72891;SDS011;61032;50.782;6.818;2023-03-01T04:12:41;10.73;;;6.53;;
72891;SDS011;61032;50.782;6.818;2023-03-01T04:13:45;12.60;;;7.43;;
72891;SDS011;61032;50.782;6.818;2023-03-01T04:14:45;12.27;;;7.10;;
72891;SDS011;61032;50.782;6.818;2023-03-01T04:15:47;13.82;;;7.70;;
72891;SDS011;61032;50.782;6.818;2023-03-01T04:16:49;11.38;;;6.90;;
72891;SDS011;61032;50.782;6.818;2023-03-01T04:17:49;10.90;;;6.30;;
72891;SDS011;61032;50.782;6.818;2023-03-01T04:18:51;11.70;;;6.63;;
72891;SDS011;61032;50.782;6.818;2023-03-01T04:19:56;11.50;;;7.63;;
72891;SDS011;61032;50.782;6.818;2023-03-01T04:20:56;12.75;;;7.13;;
72891;SDS011;61032;50.782;6.818;2023-03-01T04:21:57;12.30;;;7.32;;
72891;SDS011;61032;50.782;6.818;2023-03-01T04:22:58;13.25;;;7.30;;
72891;SDS011;61032;50.782;6.818;2023-03-01T04:24:20;10.65;;;6.25;;
72891;SDS011;61032;50.782;6.818;2023-03-01T04:25:23;12.93;;;7.15;;
72891;SDS011;61032;50.782;6.818;2023-03-01T04:26:23;9.57;;;6.53;;
72891;SDS011;61032;50.782;6.818;2023-03-01T04:27:24;10.52;;;6.50;;
72891;SDS011;61032;50.782;6.818;2023-03-01T04:28:26;13.43;;;6.97;;
72891;SDS011;61032;50.782;6.818;2023-03-01T04:29:26;10.55;;;7.20;;
72891;SDS011;61032;50.782;6.818;2023-03-01T04:30:27;9.80;;;6.13;;
72891;SDS011;61032;50.782;6.818;2023-03-01T04:31:27;9.98;;;6.45;;
72891;SDS011;61032;50.782;6.818;2023-03-01T04:32:28;12.10;;;7.88;;
72891;SDS011;61032;50.782;6.818;2023-03-01T04:33:28;9.45;;;6.47;;
72891;SDS011;61032;50.782;6.818;2023-03-01T04:34:29;12.18;;;7.00;;
72891;SDS011;61032;50.782;6.818;2023-03-01T04:35:30;11.20;;;6.45;;
72891;SDS011;61032;50.782;6.818;2023-03-01T04:36:31;9.52;;;6.28;;
72891;SDS011;61032;50.782;6.818;2023-03-01T04:37:31;11.50;;;6.35;;
72891;SDS011;61032;50.782;6.818;2023-03-01T04:38:31;11.55;;;6.32;;
72891;SDS011;61032;50.782;6.818;2023-03-01T04:39:32;11.23;;;7.30;;
72891;SDS011;61032;50.782;6.818;2023-03-01T04:40:32;13.05;;;7.28;;
72891;SDS011;61032;50.782;6.818;2023-03-01T04:41:33;11.38;;;6.72;;
72891;SDS011;61032;50.782;6.818;2023-03-01T04:42:33;12.82;;;7.57;;
72891;SDS011;61032;50.782;6.818;2023-03-01T04:43:33;12.82;;;6.95;;
72891;SDS011;61032;50.782;6.818;2023-03-01T04:44:34;13.02;;;7.18;;
72891;SDS011;61032;50.782;6.818;2023-03-01T04:45:34;10.27;;;6.65;;
72891;SDS011;61032;50.782;6.818;2023-03-01T04:46:35;10.75;;;6.50;;
72891;SDS011;61032;50.782;6.818;2023-03-01T04:47:36;11.38;;;6.63;;
72891;SDS011;61032;50.782;6.818;2023-03-01T04:48:38;12.00;;;7.30;;
72891;SDS011;61032;50.782;6.818;2023-03-01T04:49:40;10.75;;;6.55;;
72891;SDS011;61032;50.782;6.818;2023-03-01T04:50:40;12.32;;;7.97;;
72891;SDS011;61032;50.782;6.818;2023-03-01T04:51:40;9.85;;;7.22;;
72891;SDS011;61032;50.782;6.818;2023-03-01T04:52:40;11.50;;;6.95;;
72891;SDS011;61032;50.782;6.818;2023-03-01T04:53:41;10.25;;;6.80;;
72891;SDS011;61032;50.782;6.818;2023-03-01T04:54:42;13.32;;;8.18;;
72891;SDS011;61032;50.782;6.818;2023-03-01T04:55:43;10.35;;;6.57;;
72891;SDS011;61032;50.782;6.818;2023-03-01T04:56:43;12.60;;;7.90;;
72891;SDS011;61032;50.782;6.818;2023-03-01T04:57:43;12.98;;;7.47;;
72891;SDS011;61032;50.782;6.818;2023-03-01T04:58:44;11.60;;;7.50;;
72891;SDS011;61032;50.782;6.818;2023-03-01T04:59:45;12.13;;;6.82;;
72891;SDS011;61032;50.782;6.818;2023-03-01T05:00:45;15.23;;;7.82;;
72891;SDS011;61032;50.782;6.818;2023-03-01T05:01:45;12.23;;;6.80;;
72891;SDS011;61032;50.782;6.818;2023-03-01T05:02:53;16.08;;;7.70;;
72891;SDS011;61032;50.782;6.818;2023-03-01T05:03:55;13.10;;;8.45;;
72891;SDS011;61032;50.782;6.818;2023-03-01T05:04:55;13.88;;;8.35;;
72891;SDS011;61032;50.782;6.818;2023-03-01T05:05:58;11.77;;;7.50;;
72891;SDS011;61032;50.782;6.818;2023-03-01T05:06:59;12.38;;;7.85;;
72891;SDS011;61032;50.782;6.818;2023-03-01T05:08:00;15.13;;;8.10;;
72891;SDS011;61032;50.782;6.818;2023-03-01T05:09:04;13.35;;;8.95;;
72891;SDS011;61032;50.782;6.818;2023-03-01T05:10:04;12.88;;;7.63;;
72891;SDS011;61032;50.782;6.818;2023-03-01T05:11:05;14.07;;;7.55;;
72891;SDS011;61032;50.782;6.818;2023-03-01T05:12:08;13.52;;;7.10;;
72891;SDS011;61032;50.782;6.818;2023-03-01T05:13:09;13.25;;;7.50;;
72891;SDS011;61032;50.782;6.818;2023-03-01T05:14:10;11.20;;;6.15;;
72891;SDS011;61032;50.782;6.818;2023-03-01T05:15:10;11.55;;;6.95;;
72891;SDS011;61032;50.782;6.818;2023-03-01T05:16:11;11.57;;;7.40;;
72891;SDS011;61032;50.782;6.818;2023-03-01T05:17:11;11.82;;;6.93;;
72891;SDS011;61032;50.782;6.818;2023-03-01T05:18:12;14.70;;;7.38;;
72891;SDS011;61032;50.782;6.818;2023-03-01T05:19:12;12.15;;;7.22;;
72891;SDS011;61032;50.782;6.818;2023-03-01T05:20:15;11.02;;;7.18;;
72891;SDS011;61032;50.782;6.818;2023-03-01T05:21:16;15.52;;;7.47;;
72891;SDS011;61032;50.782;6.818;2023-03-01T05:22:16;15.35;;;7.68;;
72891;SDS011;61032;50.782;6.818;2023-03-01T05:23:17;13.98;;;7.55;;
72891;SDS011;61032;50.782;6.818;2023-03-01T05:24:18;15.40;;;7.93;;
72891;SDS011;61032;50.782;6.818;2023-03-01T05:25:18;15.07;;;8.50;;
72891;SDS011;61032;50.782;6.818;2023-03-01T05:26:19;18.23;;;8.40;;
72891;SDS011;61032;50.782;6.818;2023-03-01T05:27:21;13.18;;;7.30;;
72891;SDS011;61032;50.782;6.818;2023-03-01T05:28:22;17.15;;;8.77;;
72891;SDS011;61032;50.782;6.818;2023-03-01T05:29:23;13.93;;;7.47;;
72891;SDS011;61032;50.782;6.818;2023-03-01T05:30:27;10.80;;;6.72;;
72891;SDS011;61032;50.782;6.818;2023-03-01T05:31:27;13.45;;;7.25;;
72891;SDS011;61032;50.782;6.818;2023-03-01T05:32:28;10.48;;;6.47;;
72891;SDS011;61032;50.782;6.818;2023-03-01T05:33:32;12.23;;;7.28;;
72891;SDS011;61032;50.782;6.818;2023-03-01T05:34:33;11.40;;;7.15;;
72891;SDS011;61032;50.782;6.818;2023-03-01T05:35:35;11.02;;;7.18;;
72891;SDS011;61032;50.782;6.818;2023-03-01T05:36:36;12.13;;;6.30;;
72891;SDS011;61032;50.782;6.818;2023-03-01T05:37:39;12.65;;;6.63;;
72891;SDS011;61032;50.782;6.818;2023-03-01T05:38:41;12.18;;;6.80;;
72891;SDS011;61032;50.782;6.818;2023-03-01T05:39:42;12.13;;;6.30;;
72891;SDS011;61032;50.782;6.818;2023-03-01T05:40:42;13.43;;;6.55;;
72891;SDS011;61032;50.782;6.818;2023-03-01T05:41:46;12.10;;;7.30;;
72891;SDS011;61032;50.782;6.818;2023-03-01T05:42:47;12.98;;;7.15;;
72891;SDS011;61032;50.782;6.818;2023-03-01T05:43:50;13.93;;;8.38;;
72891;SDS011;61032;50.782;6.818;2023-03-01T05:44:50;11.90;;;7.07;;
72891;SDS011;61032;50.782;6.818;2023-03-01T05:45:51;11.35;;;7.22;;
72891;SDS011;61032;50.782;6.818;2023-03-01T05:46:51;14.95;;;8.73;;
72891;SDS011;61032;50.782;6.818;2023-03-01T05:47:52;15.32;;;8.90;;
72891;SDS011;61032;50.782;6.818;2023-03-01T05:48:54;19.10;;;9.77;;
72891;SDS011;61032;50.782;6.818;2023-03-01T05:49:56;17.08;;;10.02;;
72891;SDS011;61032;50.782;6.818;2023-03-01T05:50:58;17.30;;;9.75;;
72891;SDS011;61032;50.782;6.818;2023-03-01T05:52:00;15.77;;;9.73;;
72891;SDS011;61032;50.782;6.818;2023-03-01T05:53:01;14.68;;;9.23;;
72891;SDS011;61032;50.782;6.818;2023-03-01T05:54:05;16.73;;;9.52;;
72891;SDS011;61032;50.782;6.818;2023-03-01T05:55:06;14.32;;;8.48;;
72891;SDS011;61032;50.782;6.818;2023-03-01T05:56:06;13.43;;;7.60;;
72891;SDS011;61032;50.782;6.818;2023-03-01T05:57:07;15.45;;;8.18;;
72891;SDS011;61032;50.782;6.818;2023-03-01T05:58:09;16.77;;;8.05;;
72891;SDS011;61032;50.782;6.818;2023-03-01T05:59:11;16.20;;;9.00;;
72891;SDS011;61032;50.782;6.818;2023-03-01T06:00:15;13.98;;;7.93;;
72891;SDS011;61032;50.782;6.818;2023-03-01T06:01:17;13.13;;;7.95;;
72891;SDS011;61032;50.782;6.818;2023-03-01T06:02:17;13.85;;;7.82;;
72891;SDS011;61032;50.782;6.818;2023-03-01T06:03:18;11.70;;;7.07;;
72891;SDS011;61032;50.782;6.818;2023-03-01T06:04:18;12.95;;;7.95;;
72891;SDS011;61032;50.782;6.818;2023-03-01T06:05:19;10.57;;;6.95;;
72891;SDS011;61032;50.782;6.818;2023-03-01T06:06:19;10.43;;;6.65;;
72891;SDS011;61032;50.782;6.818;2023-03-01T06:07:19;13.43;;;7.10;;
72891;SDS011;61032;50.782;6.818;2023-03-01T06:08:19;9.90;;;7.07;;
72891;SDS011;61032;50.782;6.818;2023-03-01T06:09:22;10.85;;;6.38;;
72891;SDS011;61032;50.782;6.818;2023-03-01T06:10:22;11.18;;;5.82;;
72891;SDS011;61032;50.782;6.818;2023-03-01T06:11:22;11.93;;;7.40;;
72891;SDS011;61032;50.782;6.818;2023-03-01T06:12:23;11.73;;;7.20;;
72891;SDS011;61032;50.782;6.818;2023-03-01T06:13:23;9.15;;;6.35;;
72891;SDS011;61032;50.782;6.818;2023-03-01T06:15:26;10.52;;;6.60;;
72891;SDS011;61032;50.782;6.818;2023-03-01T06:16:27;9.88;;;6.50;;
72891;SDS011;61032;50.782;6.818;2023-03-01T06:17:30;14.75;;;8.95;;
72891;SDS011;61032;50.782;6.818;2023-03-01T06:18:32;11.02;;;6.93;;
72891;SDS011;61032;50.782;6.818;2023-03-01T06:19:33;10.85;;;7.38;;
72891;SDS011;61032;50.782;6.818;2023-03-01T06:20:33;12.82;;;8.10;;